Time,TemperatureF,DewpointF,PressureIn,WindDirection,WindDirectionDegrees,WindSpeedMPH,WindSpeedGustMPH,Humidity,HourlyPrecipIn,Conditions,Clouds,dailyrainin,SolarRadiationWatts/m^2,SoftwareType,DateUTC
2013-07-05 00:02:00,65.6,61.0,29.98,South,184,2.0,5.0,85,0.00,,,0.00,0,Wunderground v.1.15,2013-07-05 05:02:00,
2013-07-05 00:12:00,65.5,61.2,29.98,South,184,2.0,2.0,86,0.00,,,0.00,0,Wunderground v.1.15,2013-07-05 05:12:00,
2013-07-05 00:22:00,65.3,61.0,29.98,South,181,2.0,2.0,86,0.00,,,0.00,0,Wunderground v.1.15,2013-07-05 05:22:00,
2013-07-05 00:32:00,65.3,61.0,29.98,South,181,2.0,3.0,86,0.00,,,0.00,0,Wunderground v.1.15,2013-07-05 05:32:00,
2013-07-05 00:42:00,65.5,61.2,29.98,South,181,2.0,2.0,86,0.00,,,0.00,0,Wunderground v.1.15,2013-07-05 05:42:00,
2013-07-05 00:52:00,65.5,61.2,29.98,South,181,1.0,1.0,86,0.00,,,0.00,0,Wunderground v.1.15,2013-07-05 05:52:00,
2013-07-05 01:02:00,65.6,61.3,29.98,South,181,1.0,1.0,86,0.00,,,0.00,0,Wunderground v.1.15,2013-07-05 06:02:00,
2013-07-05 01:12:00,65.5,61.2,29.98,South,181,1.0,1.0,86,0.00,,,0.00,0,Wunderground v.1.15,2013-07-05 06:12:00,
2013-07-05 01:22:00,65.0,61.0,29.98,South,181,0.0,0.0,87,0.00,,,0.00,0,Wunderground v.1.15,2013-07-05 06:22:00,
2013-07-05 01:32:00,64.5,60.9,29.98,South,181,0.0,1.0,88,0.00,,,0.00,0,Wunderground v.1.15,2013-07-05 06:32:00,
2013-07-05 01:42:00,64.5,60.9,29.99,South,181,0.0,2.0,88,0.00,,,0.00,0,Wunderground v.1.15,2013-07-05 06:42:00,
2013-07-05 01:52:00,64.7,61.1,29.99,South,181,1.0,1.0,88,0.00,,,0.00,0,Wunderground v.1.15,2013-07-05 06:52:00,
2013-07-05 02:02:00,64.7,61.1,29.99,South,181,1.0,1.0,88,0.00,,,0.00,0,Wunderground v.1.15,2013-07-05 07:02:00,
2013-07-05 02:12:00,64.7,61.1,29.99,South,181,1.0,2.0,88,0.00,,,0.00,0,Wunderground v.1.15,2013-07-05 07:12:00,
2013-07-05 02:22:00,64.5,60.9,29.98,South,181,0.0,0.0,88,0.00,,,0.00,0,Wunderground v.1.15,2013-07-05 07:22:00,
2013-07-05 02:32:00,64.5,60.9,29.98,South,181,0.0,0.0,88,0.00,,,0.00,0,Wunderground v.1.15,2013-07-05 07:32:00,
2013-07-05 02:42:00,64.3,61.0,29.98,South,181,0.0,1.0,89,0.00,,,0.00,0,Wunderground v.1.15,2013-07-05 07:42:00,
2013-07-05 02:52:00,64.5,61.2,29.98,South,181,1.0,2.0,89,0.00,,,0.00,0,Wunderground v.1.15,2013-07-05 07:52:00,
2013-07-05 03:02:00,64.7,61.1,29.98,South,181,1.0,1.0,88,0.00,,,0.00,0,Wunderground v.1.15,2013-07-05 08:02:00,
2013-07-05 03:12:00,64.5,60.9,29.98,South,181,1.0,1.0,88,0.00,,,0.00,0,Wunderground v.1.15,2013-07-05 08:12:00,
2013-07-05 03:22:00,64.0,60.7,29.97,South,181,0.0,1.0,89,0.00,,,0.00,0,Wunderground v.1.15,2013-07-05 08:22:00,
2013-07-05 03:32:00,63.5,60.5,29.97,South,181,0.0,2.0,90,0.00,,,0.00,0,Wunderground v.1.15,2013-07-05 08:32:00,
2013-07-05 03:42:00,63.1,60.4,29.97,South,181,1.0,1.0,91,0.00,,,0.00,0,Wunderground v.1.15,2013-07-05 08:42:00,
2013-07-05 03:52:00,62.9,60.5,29.97,South,181,0.0,0.0,92,0.00,,,0.00,0,Wunderground v.1.15,2013-07-05 08:52:00,
2013-07-05 04:02:00,62.7,60.3,29.97,South,181,0.0,0.0,92,0.00,,,0.00,0,Wunderground v.1.15,2013-07-05 09:02:00,
2013-07-05 04:12:00,62.1,60.1,29.97,South,181,0.0,0.0,93,0.00,,,0.00,0,Wunderground v.1.15,2013-07-05 09:12:00,
2013-07-05 04:22:00,61.5,59.8,29.97,South,181,0.0,0.0,94,0.00,,,0.00,0,Wunderground v.1.15,2013-07-05 09:22:00,
2013-07-05 04:32:00,61.2,59.8,29.97,South,181,0.0,0.0,95,0.00,,,0.00,0,Wunderground v.1.15,2013-07-05 09:32:00,
2013-07-05 04:42:00,60.9,59.8,29.97,South,181,0.0,0.0,96,0.00,,,0.00,0,Wunderground v.1.15,2013-07-05 09:42:00,
2013-07-05 04:52:00,60.9,60.0,29.98,South,181,0.0,0.0,97,0.00,,,0.00,0,Wunderground v.1.15,2013-07-05 09:52:00,
2013-07-05 05:02:00,60.5,59.6,29.98,South,181,0.0,0.0,97,0.00,,,0.00,0,Wunderground v.1.15,2013-07-05 10:02:00,
2013-07-05 05:12:00,60.5,59.9,29.98,South,181,0.0,0.0,98,0.00,,,0.00,0,Wunderground v.1.15,2013-07-05 10:12:00,
2013-07-05 05:22:00,60.2,59.6,29.98,South,181,0.0,0.0,98,0.00,,,0.00,0,Wunderground v.1.15,2013-07-05 10:22:00,
2013-07-05 05:32:00,60.1,59.5,29.98,South,181,0.0,0.0,98,0.00,,,0.00,7,Wunderground v.1.15,2013-07-05 10:32:00,
2013-07-05 05:42:00,60.4,60.1,29.99,South,181,0.0,0.0,99,0.00,,,0.00,11,Wunderground v.1.15,2013-07-05 10:42:00,
2013-07-05 06:02:00,62.0,62.0,29.98,South,181,0.0,0.0,100,0.00,,,0.00,70,Wunderground v.1.15,2013-07-05 11:02:00,
2013-07-05 06:12:00,64.0,63.4,29.99,South,181,1.0,1.0,98,0.00,,,0.00,93,Wunderground v.1.15,2013-07-05 11:12:00,
2013-07-05 06:32:00,66.4,63.7,29.99,South,181,1.0,1.0,91,0.00,,,0.00,135,Wunderground v.1.15,2013-07-05 11:32:00,
2013-07-05 06:42:00,67.3,63.6,29.98,South,181,1.0,1.0,88,0.00,,,0.00,160,Wunderground v.1.15,2013-07-05 11:42:00,
2013-07-05 07:02:00,68.8,64.1,29.98,South,181,2.0,6.0,85,0.00,,,0.00,211,Wunderground v.1.15,2013-07-05 12:02:00,
2013-07-05 07:12:00,69.3,64.3,29.99,SW,222,4.0,4.0,84,0.00,,,0.00,239,Wunderground v.1.15,2013-07-05 12:12:00,
2013-07-05 07:22:00,69.8,64.4,30.00,SW,216,3.0,3.0,83,0.00,,,0.00,264,Wunderground v.1.15,2013-07-05 12:22:00,
2013-07-05 07:32:00,70.4,64.3,30.00,SW,216,3.0,3.0,81,0.00,,,0.00,292,Wunderground v.1.15,2013-07-05 12:32:00,
2013-07-05 07:42:00,71.1,64.6,30.00,SW,216,2.0,2.0,80,0.00,,,0.00,318,Wunderground v.1.15,2013-07-05 12:42:00,
2013-07-05 07:52:00,71.8,64.9,30.00,SW,216,2.0,2.0,79,0.00,,,0.00,343,Wunderground v.1.15,2013-07-05 12:52:00,
2013-07-05 08:12:00,72.8,64.8,30.00,SW,216,2.0,3.0,76,0.00,,,0.00,401,Wunderground v.1.15,2013-07-05 13:12:00,
2013-07-05 08:22:00,73.3,65.3,30.00,SSW,210,3.0,3.0,76,0.00,,,0.00,429,Wunderground v.1.15,2013-07-05 13:22:00,
2013-07-05 08:32:00,74.0,65.6,30.00,SSW,210,1.0,3.0,75,0.00,,,0.00,452,Wunderground v.1.15,2013-07-05 13:32:00,
2013-07-05 08:42:00,74.6,65.0,30.00,SSW,210,1.0,1.0,72,0.00,,,0.00,480,Wunderground v.1.15,2013-07-05 13:42:00,
2013-07-05 08:52:00,75.3,64.8,30.00,SSW,210,2.0,2.0,70,0.00,,,0.00,503,Wunderground v.1.15,2013-07-05 13:52:00,
2013-07-05 09:12:00,76.0,65.5,30.00,SSW,210,3.0,5.0,70,0.00,,,0.00,558,Wunderground v.1.15,2013-07-05 14:12:00,
2013-07-05 09:22:00,76.3,65.8,30.00,SSW,210,3.0,5.0,70,0.00,,,0.00,579,Wunderground v.1.15,2013-07-05 14:22:00,
2013-07-05 09:32:00,77.0,66.0,30.00,SSW,196,3.0,3.0,69,0.00,,,0.00,604,Wunderground v.1.15,2013-07-05 14:32:00,
2013-07-05 09:52:00,77.9,65.2,30.00,SSW,210,6.0,6.0,65,0.00,,,0.00,648,Wunderground v.1.15,2013-07-05 14:52:00,
2013-07-05 10:02:00,78.5,66.6,30.00,SSW,209,3.0,3.0,67,0.00,,,0.00,667,Wunderground v.1.15,2013-07-05 15:02:00,
2013-07-05 10:32:00,77.7,66.7,29.99,SE,140,5.0,6.0,69,0.00,,,0.00,725,Wunderground v.1.15,2013-07-05 15:32:00,
2013-07-05 10:42:00,77.4,66.8,29.99,SE,128,5.0,8.0,70,0.00,,,0.00,743,Wunderground v.1.15,2013-07-05 15:42:00,
2013-07-05 10:52:00,77.0,67.3,29.99,SE,131,4.0,4.0,72,0.00,,,0.00,758,Wunderground v.1.15,2013-07-05 15:52:00,
2013-07-05 11:02:00,74.0,66.0,29.99,SSE,147,7.0,8.0,76,0.00,,,0.00,771,Wunderground v.1.15,2013-07-05 16:02:00,
2013-07-05 11:12:00,73.2,65.2,30.00,SSE,151,6.0,6.0,76,0.00,,,0.00,779,Wunderground v.1.15,2013-07-05 16:12:00,
2013-07-05 11:22:00,74.2,66.1,29.99,SE,137,4.0,6.0,76,0.00,,,0.00,801,Wunderground v.1.15,2013-07-05 16:22:00,
2013-07-05 11:32:00,74.6,66.5,29.99,SE,124,4.0,4.0,76,0.00,,,0.00,804,Wunderground v.1.15,2013-07-05 16:32:00,
2013-07-05 11:42:00,75.3,67.2,29.99,South,184,5.0,5.0,76,0.00,,,0.00,825,Wunderground v.1.15,2013-07-05 16:42:00,
2013-07-05 11:52:00,76.3,67.0,29.98,South,169,4.0,8.0,73,0.00,,,0.00,845,Wunderground v.1.15,2013-07-05 16:52:00,
2013-07-05 12:02:00,76.5,65.6,29.98,South,169,6.0,6.0,69,0.00,,,0.00,850,Wunderground v.1.15,2013-07-05 17:02:00,
2013-07-05 12:12:00,76.3,66.6,29.99,SE,128,7.0,7.0,72,0.00,,,0.00,859,Wunderground v.1.15,2013-07-05 17:12:00,
2013-07-05 12:22:00,76.5,66.0,29.98,SSE,162,8.0,10.0,70,0.00,,,0.00,860,Wunderground v.1.15,2013-07-05 17:22:00,
2013-07-05 12:32:00,76.3,66.6,29.98,South,181,9.0,9.0,72,0.00,,,0.00,859,Wunderground v.1.15,2013-07-05 17:32:00,
2013-07-05 12:42:00,76.5,66.0,29.98,South,176,9.0,13.0,70,0.00,,,0.00,852,Wunderground v.1.15,2013-07-05 17:42:00,
2013-07-05 12:52:00,77.0,66.5,29.98,SSW,192,8.0,8.0,70,0.00,,,0.00,846,Wunderground v.1.15,2013-07-05 17:52:00,
2013-07-05 13:12:00,75.8,65.3,29.98,SSE,157,6.0,7.0,70,0.00,,,0.00,843,Wunderground v.1.15,2013-07-05 18:12:00,
2013-07-05 13:22:00,74.2,65.8,29.98,SSE,164,7.0,7.0,75,0.00,,,0.00,846,Wunderground v.1.15,2013-07-05 18:22:00,
2013-07-05 13:32:00,73.3,64.9,29.98,South,182,9.0,9.0,75,0.00,,,0.00,830,Wunderground v.1.15,2013-07-05 18:32:00,
2013-07-05 13:42:00,73.3,64.9,29.98,South,191,10.0,10.0,75,0.00,,,0.00,832,Wunderground v.1.15,2013-07-05 18:42:00,
2013-07-05 13:52:00,73.2,64.4,29.98,SSE,161,10.0,10.0,74,0.00,,,0.00,827,Wunderground v.1.15,2013-07-05 18:52:00,
2013-07-05 14:02:00,73.2,64.8,29.98,South,172,9.0,11.0,75,0.00,,,0.00,809,Wunderground v.1.15,2013-07-05 19:02:00,
2013-07-05 14:12:00,73.9,65.1,29.97,SSW,192,9.0,9.0,74,0.00,,,0.00,801,Wunderground v.1.15,2013-07-05 19:12:00,
2013-07-05 14:22:00,74.6,65.4,29.97,SE,140,8.0,8.0,73,0.00,,,0.00,794,Wunderground v.1.15,2013-07-05 19:22:00,
2013-07-05 14:32:00,74.9,64.9,29.97,South,186,9.0,10.0,71,0.00,,,0.00,783,Wunderground v.1.15,2013-07-05 19:32:00,
2013-07-05 14:42:00,74.9,64.5,29.97,SSW,198,11.0,12.0,70,0.00,,,0.00,772,Wunderground v.1.15,2013-07-05 19:42:00,
2013-07-05 14:52:00,75.8,65.3,29.96,SSW,206,12.0,12.0,70,0.00,,,0.00,764,Wunderground v.1.15,2013-07-05 19:52:00,
2013-07-05 15:02:00,75.3,64.8,29.96,South,191,13.0,13.0,70,0.00,,,0.00,743,Wunderground v.1.15,2013-07-05 20:02:00,
2013-07-05 15:12:00,75.8,65.7,29.96,SSW,213,11.0,13.0,71,0.00,,,0.00,730,Wunderground v.1.15,2013-07-05 20:12:00,
2013-07-05 15:22:00,75.1,64.6,29.96,South,171,13.0,13.0,70,0.00,,,0.00,688,Wunderground v.1.15,2013-07-05 20:22:00,
2013-07-05 15:42:00,75.8,64.9,29.95,SSW,192,13.0,17.0,69,0.00,,,0.00,670,Wunderground v.1.15,2013-07-05 20:42:00,
2013-07-05 15:52:00,76.0,64.7,29.95,SSW,196,12.0,13.0,68,0.00,,,0.00,653,Wunderground v.1.15,2013-07-05 20:52:00,
2013-07-05 16:02:00,76.1,66.0,29.95,SW,222,11.0,11.0,71,0.00,,,0.00,630,Wunderground v.1.15,2013-07-05 21:02:00,
2013-07-05 16:12:00,76.3,64.5,29.95,South,188,11.0,11.0,67,0.00,,,0.00,600,Wunderground v.1.15,2013-07-05 21:12:00,
2013-07-05 16:22:00,75.6,63.4,29.95,SSW,206,14.0,19.0,66,0.00,,,0.00,589,Wunderground v.1.15,2013-07-05 21:22:00,
2013-07-05 16:32:00,75.3,63.6,29.95,South,181,18.0,18.0,67,0.00,,,0.00,556,Wunderground v.1.15,2013-07-05 21:32:00,
2013-07-05 16:42:00,75.3,63.2,29.95,SSW,199,15.0,16.0,66,0.00,,,0.00,524,Wunderground v.1.15,2013-07-05 21:42:00,
2013-07-05 16:52:00,75.1,62.5,29.95,South,181,15.0,15.0,65,0.00,,,0.00,494,Wunderground v.1.15,2013-07-05 21:52:00,
2013-07-05 17:02:00,74.6,62.9,29.95,South,188,15.0,15.0,67,0.00,,,0.00,479,Wunderground v.1.15,2013-07-05 22:02:00,
2013-07-05 17:12:00,74.0,62.8,29.95,South,188,15.0,15.0,68,0.00,,,0.00,452,Wunderground v.1.15,2013-07-05 22:12:00,
2013-07-05 17:22:00,74.0,63.2,29.95,SSW,202,15.0,22.0,69,0.00,,,0.00,429,Wunderground v.1.15,2013-07-05 22:22:00,
2013-07-05 17:32:00,73.7,63.3,29.95,SSE,165,13.0,17.0,70,0.00,,,0.00,398,Wunderground v.1.15,2013-07-05 22:32:00,
2013-07-05 17:42:00,73.7,63.3,29.94,SSW,203,12.0,12.0,70,0.00,,,0.00,378,Wunderground v.1.15,2013-07-05 22:42:00,
2013-07-05 17:52:00,74.2,63.0,29.94,SSW,213,13.0,13.0,68,0.00,,,0.00,377,Wunderground v.1.15,2013-07-05 22:52:00,
2013-07-05 18:02:00,74.2,62.5,29.94,SSW,213,13.0,13.0,67,0.00,,,0.00,331,Wunderground v.1.15,2013-07-05 23:02:00,
2013-07-05 18:12:00,74.4,61.9,29.94,SSW,213,12.0,18.0,65,0.00,,,0.00,297,Wunderground v.1.15,2013-07-05 23:12:00,
2013-07-05 18:22:00,74.4,60.5,29.93,South,189,14.0,16.0,62,0.00,,,0.00,269,Wunderground v.1.15,2013-07-05 23:22:00,
2013-07-05 18:32:00,74.2,59.4,29.93,SSW,203,14.0,14.0,60,0.00,,,0.00,234,Wunderground v.1.15,2013-07-05 23:32:00,
2013-07-05 18:42:00,74.2,59.4,29.94,SW,222,15.0,18.0,60,0.00,,,0.00,215,Wunderground v.1.15,2013-07-05 23:42:00,
2013-07-05 18:52:00,74.0,57.8,29.94,SSW,202,13.0,20.0,57,0.00,,,0.00,183,Wunderground v.1.15,2013-07-05 23:52:00,
2013-07-05 19:02:00,74.0,57.3,29.94,SW,219,14.0,14.0,56,0.00,,,0.00,165,Wunderground v.1.15,2013-07-06 00:02:00,
2013-07-05 19:12:00,74.0,57.3,29.94,SSW,192,13.0,13.0,56,0.00,,,0.00,141,Wunderground v.1.15,2013-07-06 00:12:00,
2013-07-05 19:22:00,73.9,57.2,29.94,SSW,202,12.0,12.0,56,0.00,,,0.00,120,Wunderground v.1.15,2013-07-06 00:22:00,
2013-07-05 19:42:00,72.8,57.2,29.94,SSW,203,9.0,12.0,58,0.00,,,0.00,77,Wunderground v.1.15,2013-07-06 00:42:00,
2013-07-05 19:52:00,72.5,57.4,29.94,SSW,200,9.0,9.0,59,0.00,,,0.00,60,Wunderground v.1.15,2013-07-06 00:52:00,
2013-07-05 20:02:00,71.8,56.7,29.94,South,189,9.0,10.0,59,0.00,,,0.00,40,Wunderground v.1.15,2013-07-06 01:02:00,
2013-07-05 20:12:00,71.5,56.4,29.94,SSW,205,9.0,9.0,59,0.00,,,0.00,21,Wunderground v.1.15,2013-07-06 01:12:00,
2013-07-05 20:22:00,71.1,57.0,29.94,South,179,10.0,10.0,61,0.00,,,0.00,11,Wunderground v.1.15,2013-07-06 01:22:00,
2013-07-05 20:32:00,70.6,56.9,29.94,South,191,8.0,9.0,62,0.00,,,0.00,0,Wunderground v.1.15,2013-07-06 01:32:00,
2013-07-05 20:42:00,70.3,57.5,29.94,South,182,8.0,8.0,64,0.00,,,0.00,0,Wunderground v.1.15,2013-07-06 01:42:00,
2013-07-05 20:52:00,70.3,57.5,29.93,SSW,206,7.0,7.0,64,0.00,,,0.00,0,Wunderground v.1.15,2013-07-06 01:52:00,
2013-07-05 21:02:00,70.1,57.8,29.93,SSW,198,7.0,7.0,65,0.00,,,0.00,0,Wunderground v.1.15,2013-07-06 02:02:00,
2013-07-05 21:12:00,70.3,58.0,29.93,SSW,208,8.0,8.0,65,0.00,,,0.00,0,Wunderground v.1.15,2013-07-06 02:12:00,
2013-07-05 21:22:00,70.3,58.0,29.93,SSW,200,8.0,8.0,65,0.00,,,0.00,0,Wunderground v.1.15,2013-07-06 02:22:00,
2013-07-05 21:32:00,69.9,58.0,29.93,SSW,193,7.0,10.0,66,0.00,,,0.00,0,Wunderground v.1.15,2013-07-06 02:32:00,
2013-07-05 21:42:00,69.8,57.9,29.94,South,188,6.0,6.0,66,0.00,,,0.00,0,Wunderground v.1.15,2013-07-06 02:42:00,
2013-07-05 21:52:00,69.8,57.9,29.94,SSW,192,7.0,7.0,66,0.00,,,0.00,0,Wunderground v.1.15,2013-07-06 02:52:00,
2013-07-05 22:02:00,69.9,58.0,29.94,SSW,193,7.0,8.0,66,0.00,,,0.00,0,Wunderground v.1.15,2013-07-06 03:02:00,
2013-07-05 22:12:00,69.8,58.3,29.95,SSW,196,6.0,6.0,67,0.00,,,0.00,0,Wunderground v.1.15,2013-07-06 03:12:00,
2013-07-05 22:22:00,69.8,57.9,29.95,SSW,200,7.0,10.0,66,0.00,,,0.00,0,Wunderground v.1.15,2013-07-06 03:22:00,
2013-07-05 22:32:00,69.6,58.2,29.95,SSW,193,7.0,7.0,67,0.00,,,0.00,0,Wunderground v.1.15,2013-07-06 03:32:00,
2013-07-05 22:42:00,69.3,58.3,29.95,SSW,208,6.0,7.0,68,0.00,,,0.00,0,Wunderground v.1.15,2013-07-06 03:42:00,
2013-07-05 22:52:00,68.8,58.2,29.95,SSW,193,5.0,5.0,69,0.00,,,0.00,0,Wunderground v.1.15,2013-07-06 03:52:00,
2013-07-05 23:02:00,68.6,58.4,29.95,SSW,205,5.0,6.0,70,0.00,,,0.00,0,Wunderground v.1.15,2013-07-06 04:02:00,
2013-07-05 23:12:00,68.4,58.2,29.95,SSW,206,4.0,4.0,70,0.00,,,0.00,0,Wunderground v.1.15,2013-07-06 04:12:00,
2013-07-05 23:22:00,68.1,57.9,29.95,SSW,193,4.0,6.0,70,0.00,,,0.00,0,Wunderground v.1.15,2013-07-06 04:22:00,
2013-07-05 23:32:00,67.9,58.1,29.95,SSW,195,4.0,4.0,71,0.00,,,0.00,0,Wunderground v.1.15,2013-07-06 04:32:00,
2013-07-05 23:42:00,67.4,58.1,29.95,SSW,195,3.0,3.0,72,0.00,,,0.00,0,Wunderground v.1.15,2013-07-06 04:42:00,
2013-07-05 23:52:00,67.6,57.9,29.95,SSW,196,3.0,3.0,71,0.00,,,0.00,0,Wunderground v.1.15,2013-07-06 04:52:00,